Weather History for Ironwood, MI

Change the Weather History Date:

Wednesday, November 28, 2012

  Actual Average Record
Temperature  
Mean Temperature 22 °F -  
Max Temperature 26 °F 32 °F 55 °F (1998)
Min Temperature 17 °F 20 °F 12 °F (2007)
Degree Days  
Heating Degree Days 44    
Moisture  
Dew Point 12 °F    
Average Humidity 68    
Maximum Humidity 80    
Minimum Humidity 58    
Precipitation  
Precipitation 0.00 in - - ()
Sea Level Pressure  
Sea Level Pressure 30.14 in    
Wind  
Wind Speed 11 mph (WSW)    
Max Wind Speed 17 mph    
Max Gust Speed 28 mph    
Visibility 10 miles    
Events      
Averages and records for this station are not official NWS values.
T = Trace of Precipitation, MM = Missing Value Source: NWS Daily Summary

Daily Weather History Graph

Daily Weather History Graph

Search for Another Location

Airport:

Trip Planner

Search our weather history database for the weather conditions in past years. The results will help you decide how hot, cold, wet, or windy it might be!

Date:

Astronomy

Nov. 28, 2012 Rise Set
Actual Time 7:20 AM CST 4:16 PM CST
Civil Twilight 6:46 AM CST 4:50 PM CST
Nautical Twilight 6:09 AM CST 5:27 PM CST
Astronomical Twilight 5:32 AM CST 6:04 PM CST
Moon 4:31 PM CST (11/28) 7:18 AM CST (11/28)
Length of Visible Light 10h 03m
Length of Day
8h 55m
Full, 100% of the Moon is Illuminated
Nov 28
Full
Dec 6
Last Quarter
Dec 13
New
Dec 19
First Quarter
Dec 28
Full

Hourly Weather History & Observations

Time (CST) Temp. Windchill Dew Point Humidity Pressure Visibility Wind Dir Wind Speed Gust Speed Precip Events Conditions
12:15 AM 24.8 °F 12.9 °F 15.8 °F 69% 30.10 in 10.0 mi WNW 13.8 mph - N/A   Overcast
12:35 AM 24.8 °F 12.9 °F 15.8 °F 69% 30.11 in 10.0 mi NW 13.8 mph 20.7 mph N/A   Overcast
12:55 AM 23.0 °F 10.1 °F 12.2 °F 63% 30.12 in 10.0 mi WNW 15.0 mph 26.5 mph N/A   Overcast
1:15 AM 23.0 °F 10.1 °F 12.2 °F 63% 30.13 in 10.0 mi WNW 15.0 mph 27.6 mph N/A   Overcast
1:35 AM 21.2 °F 8.3 °F 10.4 °F 63% 30.13 in 10.0 mi NW 13.8 mph 20.7 mph N/A   Overcast
1:55 AM 21.2 °F 10.1 °F 10.4 °F 63% 30.14 in 10.0 mi NW 10.4 mph 16.1 mph N/A   Overcast
2:15 AM 21.2 °F 10.9 °F 12.2 °F 68% 30.14 in 10.0 mi NW 9.2 mph - N/A   Overcast
2:35 AM 21.2 °F 10.1 °F 14.0 °F 74% 30.14 in 10.0 mi NW 10.4 mph - N/A   Overcast
2:55 AM 21.2 °F 10.9 °F 12.2 °F 68% 30.15 in 10.0 mi NW 9.2 mph - N/A   Overcast
3:15 AM 21.2 °F 8.9 °F 15.8 °F 80% 30.16 in 9.0 mi NW 12.7 mph - N/A   Overcast
3:35 AM 21.2 °F 10.1 °F 14.0 °F 74% 30.16 in 9.0 mi NW 10.4 mph - N/A   Overcast
3:55 AM 21.2 °F 9.5 °F 12.2 °F 68% 30.16 in 10.0 mi NW 11.5 mph - N/A   Overcast
4:15 AM 19.4 °F 5.5 °F 14.0 °F 80% 30.17 in 10.0 mi NW 15.0 mph - N/A   Overcast
4:35 AM 19.4 °F 6.0 °F 12.2 °F 74% 30.17 in 10.0 mi NW 13.8 mph 19.6 mph N/A   Overcast
4:55 AM 19.4 °F 7.2 °F 12.2 °F 74% 30.18 in 10.0 mi NW 11.5 mph - N/A   Overcast
5:15 AM 19.4 °F 7.2 °F 12.2 °F 74% 30.19 in 10.0 mi NW 11.5 mph - N/A   Overcast
5:35 AM 19.4 °F 8.6 °F 10.4 °F 68% 30.19 in 10.0 mi NW 9.2 mph - N/A   Overcast
5:55 AM 19.4 °F 7.2 °F 12.2 °F 74% 30.19 in 10.0 mi WNW 11.5 mph - N/A   Overcast
6:15 AM 19.4 °F 6.6 °F 10.4 °F 68% 30.20 in 10.0 mi NW 12.7 mph - N/A   Overcast
6:35 AM 19.4 °F 8.6 °F 10.4 °F 68% 30.20 in 10.0 mi NW 9.2 mph - N/A   Overcast
6:55 AM 19.4 °F 9.5 °F 10.4 °F 68% 30.20 in 10.0 mi WNW 8.1 mph - N/A   Overcast
7:15 AM 19.4 °F 9.5 °F 10.4 °F 68% 30.21 in 10.0 mi WNW 8.1 mph - N/A   Overcast
7:35 AM 19.4 °F 8.6 °F 10.4 °F 68% 30.21 in 10.0 mi WNW 9.2 mph - N/A   Overcast
7:55 AM 19.4 °F 8.6 °F 10.4 °F 68% 30.21 in 10.0 mi West 9.2 mph - N/A   Overcast
8:15 AM 17.6 °F 9.3 °F 8.6 °F 68% 30.22 in 10.0 mi WNW 5.8 mph - N/A   Overcast
8:35 AM 17.6 °F 8.2 °F 10.4 °F 73% 30.21 in 7.0 mi West 6.9 mph - N/A   Overcast
8:55 AM 17.6 °F 5.0 °F 10.4 °F 73% 30.21 in 7.0 mi West 11.5 mph - N/A   Overcast
9:15 AM 17.6 °F 4.3 °F 10.4 °F 73% 30.21 in 9.0 mi West 12.7 mph - N/A   Overcast
9:35 AM 17.6 °F 4.3 °F 10.4 °F 73% 30.22 in 10.0 mi West 12.7 mph - N/A   Overcast
9:55 AM 17.6 °F 2.2 °F 8.6 °F 68% 30.23 in 10.0 mi West 17.3 mph - N/A   Overcast
10:15 AM 17.6 °F 3.7 °F 10.4 °F 73% 30.23 in 10.0 mi West 13.8 mph - N/A   Overcast
10:35 AM 19.4 °F 6.6 °F 8.6 °F 63% 30.22 in 10.0 mi WSW 12.7 mph - N/A   Overcast
10:55 AM 19.4 °F 7.2 °F 10.4 °F 68% 30.22 in 10.0 mi WSW 11.5 mph - N/A   Overcast
11:15 AM 19.4 °F 8.6 °F 8.6 °F 63% 30.21 in 10.0 mi WSW 9.2 mph - N/A   Overcast
11:35 AM 19.4 °F 6.0 °F 8.6 °F 63% 30.20 in 10.0 mi WSW 13.8 mph - N/A   Overcast
11:55 AM 19.4 °F 7.2 °F 8.6 °F 63% 30.20 in 10.0 mi West 11.5 mph - N/A   Overcast
12:35 PM 19.4 °F 6.6 °F 10.4 °F 68% 30.18 in 10.0 mi SSW 12.7 mph - N/A   Scattered Clouds
12:55 PM 21.2 °F 10.1 °F 10.4 °F 63% 30.17 in 10.0 mi SSW 10.4 mph - N/A   Mostly Cloudy
1:15 PM 21.2 °F 10.1 °F 8.6 °F 58% 30.16 in 10.0 mi SW 10.4 mph - N/A   Partly Cloudy
1:35 PM 21.2 °F 9.5 °F 10.4 °F 63% 30.15 in 10.0 mi SW 11.5 mph - N/A   Clear
1:55 PM 21.2 °F 9.5 °F 10.4 °F 63% 30.15 in 10.0 mi SW 11.5 mph - N/A   Clear
2:15 PM 21.2 °F 10.1 °F 12.2 °F 68% 30.14 in 10.0 mi SW 10.4 mph - N/A   Clear
2:35 PM 23.0 °F 12.4 °F 10.4 °F 59% 30.13 in 10.0 mi SW 10.4 mph - N/A   Clear
2:55 PM 23.0 °F 13.1 °F 10.4 °F 59% 30.12 in 10.0 mi SW 9.2 mph - N/A   Clear
3:15 PM 23.0 °F 13.1 °F 10.4 °F 59% 30.12 in 10.0 mi SW 9.2 mph - N/A   Clear
3:35 PM 23.0 °F 15.8 °F 10.4 °F 59% 30.10 in 10.0 mi SSW 5.8 mph - N/A   Clear
3:55 PM 21.2 °F 14.9 °F 10.4 °F 63% 30.10 in 10.0 mi SSW 4.6 mph - N/A   Clear
4:15 PM 21.2 °F 14.9 °F 10.4 °F 63% 30.10 in 10.0 mi SSW 4.6 mph - N/A   Clear
4:35 PM 21.2 °F 16.4 °F 10.4 °F 63% 30.10 in 10.0 mi South 3.5 mph - N/A   Clear
4:55 PM 21.2 °F 14.9 °F 10.4 °F 63% 30.10 in 10.0 mi SSW 4.6 mph - N/A   Clear
5:15 PM 21.2 °F 13.6 °F 10.4 °F 63% 30.09 in 10.0 mi SSW 5.8 mph - N/A   Clear
5:35 PM 21.2 °F 11.7 °F 12.2 °F 68% 30.08 in 10.0 mi SSW 8.1 mph - N/A   Clear
5:55 PM 21.2 °F 9.5 °F 12.2 °F 68% 30.08 in 10.0 mi SSW 11.5 mph 19.6 mph N/A   Clear
6:15 PM 23.0 °F 11.7 °F 12.2 °F 63% 30.08 in 10.0 mi SSW 11.5 mph 18.4 mph N/A   Clear
6:35 PM 24.8 °F 14.0 °F 14.0 °F 64% 30.07 in 10.0 mi SW 11.5 mph 19.6 mph N/A   Clear
6:55 PM 24.8 °F 14.0 °F 14.0 °F 64% 30.06 in 10.0 mi SW 11.5 mph - N/A   Clear
7:15 PM 24.8 °F 14.0 °F 15.8 °F 69% 30.06 in 10.0 mi SW 11.5 mph 16.1 mph N/A   Clear
7:35 PM 24.8 °F 14.0 °F 15.8 °F 69% 30.05 in 10.0 mi SSW 11.5 mph 16.1 mph N/A   Clear
7:55 PM 24.8 °F 15.3 °F 15.8 °F 69% 30.05 in 10.0 mi SW 9.2 mph - N/A   Scattered Clouds
8:15 PM 24.8 °F 14.6 °F 15.8 °F 69% 30.05 in 10.0 mi SW 10.4 mph - N/A   Scattered Clouds
8:35 PM 26.6 °F 16.8 °F 17.6 °F 69% 30.05 in 10.0 mi SW 10.4 mph - N/A   Clear
8:55 PM 26.6 °F 15.7 °F 17.6 °F 69% 30.05 in 10.0 mi SW 12.7 mph - N/A   Clear
9:15 PM 26.6 °F 16.2 °F 17.6 °F 69% 30.05 in 10.0 mi SW 11.5 mph - N/A   Scattered Clouds
9:35 PM 26.6 °F 16.2 °F 17.6 °F 69% 30.05 in 10.0 mi SW 11.5 mph - N/A   Scattered Clouds
9:55 PM 26.6 °F 17.5 °F 17.6 °F 69% 30.07 in 10.0 mi WNW 9.2 mph - N/A   Clear
10:15 PM 26.6 °F 22.6 °F 15.8 °F 64% 30.08 in 10.0 mi WNW 3.5 mph - N/A   Clear
10:35 PM 26.6 °F 22.6 °F 17.6 °F 69% 30.08 in 10.0 mi SSW 3.5 mph - N/A   Clear
10:55 PM 23.0 °F 17.0 °F 12.2 °F 63% 30.07 in 10.0 mi SSW 4.6 mph - N/A   Clear
11:15 PM 24.8 °F 16.1 °F 17.6 °F 74% 30.06 in 10.0 mi SW 8.1 mph - N/A   Clear
11:35 PM 24.8 °F 16.1 °F 17.6 °F 74% 30.06 in 10.0 mi SW 8.1 mph - N/A   Clear
11:55 PM 24.8 °F 16.9 °F 17.6 °F 74% 30.06 in 10.0 mi SW 6.9 mph - N/A   Partly Cloudy